TAF MUCM
MUCM 091100Z 0912/1012 VRB03KT 9000 SCT018 TEMPO 0912/0913 5000 BR BECMG 0914/0917 05009KT BECMG 1001/1004 VRB03KT NSC=
METAR MUCM
WC MUCM
WS MUCM
WV MUCM